createdAt,value
2023-08-29T00:01:05.740Z,17.80
2023-08-29T00:04:07.987Z,17.35
2023-08-29T00:07:10.226Z,16.55
2023-08-29T00:10:12.642Z,14.13
2023-08-29T00:13:14.744Z,17.10
2023-08-29T00:16:17.944Z,14.35
2023-08-29T00:19:22.616Z,15.45
2023-08-29T00:22:24.824Z,16.37
2023-08-29T00:25:26.891Z,14.40
2023-08-29T00:28:28.997Z,16.58
2023-08-29T00:31:31.158Z,15.82
2023-08-29T00:34:33.293Z,15.20
2023-08-29T00:37:35.399Z,13.77
2023-08-29T00:40:37.562Z,16.60
2023-08-29T00:43:39.898Z,15.32
2023-08-29T00:46:42.655Z,18.27
2023-08-29T00:49:45.016Z,16.55
2023-08-29T00:52:48.185Z,13.73
2023-08-29T00:55:50.904Z,17.73
2023-08-29T00:58:54.186Z,18.30
2023-08-29T01:01:56.481Z,16.48
2023-08-29T01:04:59.272Z,16.75
2023-08-29T01:08:02.587Z,14.63
2023-08-29T01:11:07.713Z,15.37
2023-08-29T01:14:15.619Z,15.50
2023-08-29T01:17:27.173Z,15.05
2023-08-29T01:20:32.065Z,17.45
2023-08-29T01:23:44.415Z,19.70
2023-08-29T01:26:47.709Z,18.63
2023-08-29T01:29:50.397Z,18.20
2023-08-29T01:32:53.502Z,17.30
2023-08-29T01:35:55.707Z,18.98
2023-08-29T01:38:57.780Z,16.83
2023-08-29T01:41:59.845Z,14.93
2023-08-29T01:45:02.035Z,20.15
2023-08-29T01:48:05.647Z,19.60
2023-08-29T01:51:08.315Z,21.17
2023-08-29T01:54:10.641Z,19.90
2023-08-29T01:57:15.413Z,19.10
2023-08-29T02:00:17.879Z,19.40
2023-08-29T02:03:23.071Z,22.05
2023-08-29T02:06:25.171Z,21.42
2023-08-29T02:09:27.292Z,23.65
2023-08-29T02:12:29.409Z,22.87
2023-08-29T02:15:31.547Z,22.87
2023-08-29T02:18:33.633Z,21.60
2023-08-29T02:21:35.775Z,17.05
2023-08-29T02:24:37.834Z,21.40
2023-08-29T02:27:39.995Z,22.90
2023-08-29T02:30:42.209Z,18.48
2023-08-29T02:33:44.594Z,21.45
2023-08-29T02:36:46.766Z,20.70
2023-08-29T02:39:48.844Z,21.40
2023-08-29T02:42:50.962Z,20.37
2023-08-29T02:45:52.967Z,18.17
2023-08-29T02:48:55.092Z,20.55
2023-08-29T02:51:58.059Z,17.48
2023-08-29T02:55:00.336Z,20.00
2023-08-29T02:58:02.493Z,17.87
2023-08-29T03:01:07.574Z,21.62
2023-08-29T03:04:09.762Z,24.17
2023-08-29T03:07:11.870Z,19.95
2023-08-29T03:10:13.944Z,21.85
2023-08-29T03:13:16.164Z,23.73
2023-08-29T03:16:20.957Z,23.10
2023-08-29T03:19:23.086Z,20.77
2023-08-29T03:22:25.229Z,22.92
2023-08-29T03:25:27.359Z,22.65
2023-08-29T03:28:29.640Z,23.63
2023-08-29T03:31:31.871Z,22.60
2023-08-29T03:34:34.756Z,24.87
2023-08-29T03:37:36.933Z,20.37
2023-08-29T03:40:38.987Z,21.08
2023-08-29T03:43:41.084Z,22.07
2023-08-29T03:46:43.306Z,21.67
2023-08-29T03:49:45.384Z,21.85
2023-08-29T03:52:47.476Z,21.95
2023-08-29T03:55:49.522Z,20.08
2023-08-29T03:58:51.632Z,23.83
2023-08-29T04:01:53.684Z,21.98
2023-08-29T04:05:12.298Z,22.73
2023-08-29T04:08:14.715Z,21.10
2023-08-29T04:11:16.797Z,22.50
2023-08-29T04:14:18.857Z,19.07
2023-08-29T04:17:20.938Z,18.77
2023-08-29T04:20:24.270Z,21.30
2023-08-29T04:23:27.205Z,20.73
2023-08-29T04:26:30.052Z,19.67
2023-08-29T04:29:32.179Z,18.90
2023-08-29T04:32:35.708Z,20.12
2023-08-29T04:35:37.861Z,19.30
2023-08-29T04:38:40.040Z,20.62
2023-08-29T04:41:42.135Z,19.52
2023-08-29T04:44:46.484Z,17.77
2023-08-29T04:47:50.287Z,20.75
2023-08-29T04:50:52.383Z,17.58
2023-08-29T04:53:54.455Z,21.70
2023-08-29T04:56:56.649Z,18.83
2023-08-29T04:59:58.813Z,19.43
2023-08-29T05:03:01.132Z,17.40
2023-08-29T05:06:03.506Z,17.75
2023-08-29T05:09:10.206Z,18.00
2023-08-29T05:12:12.356Z,17.92
2023-08-29T05:15:14.573Z,18.77
2023-08-29T05:18:16.774Z,19.35
2023-08-29T05:21:19.043Z,20.70
2023-08-29T05:24:21.179Z,19.40
2023-08-29T05:27:23.293Z,21.20
2023-08-29T05:30:25.553Z,19.90
2023-08-29T05:33:27.766Z,23.00
2023-08-29T05:36:29.872Z,16.98
2023-08-29T05:39:32.054Z,20.35
2023-08-29T05:42:34.213Z,20.37
2023-08-29T05:45:36.484Z,16.33
2023-08-29T05:48:38.894Z,19.12
2023-08-29T05:51:41.088Z,18.20
2023-08-29T05:54:44.576Z,20.52
2023-08-29T05:57:46.710Z,17.35
2023-08-29T06:00:49.753Z,19.83
2023-08-29T06:03:52.005Z,18.65
2023-08-29T06:06:55.455Z,19.58
2023-08-29T06:09:57.537Z,17.80
2023-08-29T06:12:59.886Z,16.58
2023-08-29T06:16:02.003Z,21.33
2023-08-29T06:19:04.019Z,19.83
2023-08-29T06:22:06.219Z,20.70
2023-08-29T06:25:08.973Z,21.75
2023-08-29T06:28:11.127Z,22.55
2023-08-29T06:31:13.243Z,23.03
2023-08-29T06:34:15.395Z,17.52
2023-08-29T06:37:17.516Z,19.80
2023-08-29T06:40:19.673Z,20.50
2023-08-29T06:43:21.909Z,19.05
2023-08-29T06:46:24.437Z,19.23
2023-08-29T06:49:26.659Z,18.35
2023-08-29T06:52:28.820Z,18.60
2023-08-29T06:55:33.979Z,16.10
2023-08-29T06:58:36.180Z,16.90
2023-08-29T07:01:41.470Z,16.63
2023-08-29T07:04:43.658Z,17.73
2023-08-29T07:07:45.680Z,17.80
2023-08-29T07:10:49.509Z,17.48
2023-08-29T07:13:51.879Z,13.85
2023-08-29T07:20:09.960Z,15.07
2023-08-29T07:23:12.179Z,15.70
2023-08-29T07:26:14.254Z,14.45
2023-08-29T07:29:16.434Z,12.27
2023-08-29T07:32:19.035Z,15.00
2023-08-29T07:35:21.104Z,15.73
2023-08-29T07:38:23.308Z,12.93
2023-08-29T07:41:25.456Z,11.82
2023-08-29T07:44:27.679Z,13.55
2023-08-29T07:47:29.920Z,15.70
2023-08-29T07:50:32.153Z,13.98
2023-08-29T07:53:34.260Z,14.43
2023-08-29T07:56:36.354Z,15.13
2023-08-29T07:59:38.501Z,12.98
2023-08-29T08:02:40.838Z,14.93
2023-08-29T08:05:43.010Z,13.82
2023-08-29T08:08:45.104Z,12.52
2023-08-29T08:11:47.808Z,18.00
2023-08-29T08:14:51.916Z,15.38
2023-08-29T08:17:54.040Z,13.77
2023-08-29T08:20:56.328Z,13.95
2023-08-29T08:23:58.345Z,13.90
2023-08-29T08:27:00.519Z,15.73
2023-08-29T08:30:03.071Z,14.52
2023-08-29T08:33:06.397Z,13.50
2023-08-29T08:36:09.125Z,14.60
2023-08-29T08:39:11.651Z,15.77
2023-08-29T08:42:16.404Z,12.05
2023-08-29T08:45:20.607Z,14.38
2023-08-29T08:48:22.960Z,13.53
2023-08-29T08:51:28.288Z,13.45
2023-08-29T08:54:30.541Z,11.27
2023-08-29T08:57:33.285Z,16.00
2023-08-29T09:00:35.451Z,11.63
2023-08-29T09:03:37.556Z,14.07
2023-08-29T09:06:39.814Z,18.77
2023-08-29T09:09:41.917Z,11.55
2023-08-29T09:12:49.726Z,12.95
2023-08-29T09:15:52.011Z,13.40
2023-08-29T09:18:54.136Z,11.37
2023-08-29T09:21:57.009Z,10.77
2023-08-29T09:25:04.367Z,12.30
2023-08-29T09:28:12.049Z,12.57
2023-08-29T09:31:15.697Z,11.10
2023-08-29T09:34:44.402Z,10.83
2023-08-29T09:37:54.618Z,10.40
2023-08-29T09:40:56.833Z,8.68
2023-08-29T09:43:59.128Z,9.13
2023-08-29T09:47:01.468Z,10.30
2023-08-29T09:50:04.412Z,9.27
2023-08-29T09:53:07.204Z,12.82
2023-08-29T09:56:11.332Z,10.88
2023-08-29T09:59:18.360Z,9.77
2023-08-29T10:02:22.368Z,11.02
2023-08-29T10:05:33.705Z,10.60
2023-08-29T10:08:44.936Z,11.90
2023-08-29T10:11:54.977Z,12.93
2023-08-29T10:14:58.782Z,11.82
2023-08-29T10:18:01.153Z,10.73
2023-08-29T10:21:05.281Z,9.33
2023-08-29T10:24:08.907Z,9.27
2023-08-29T10:27:11.606Z,11.02
2023-08-29T10:30:13.995Z,10.35
2023-08-29T10:33:16.519Z,10.18
2023-08-29T10:36:18.813Z,11.43
2023-08-29T10:39:20.987Z,8.65
2023-08-29T10:42:23.102Z,10.65
2023-08-29T10:45:44.676Z,9.98
2023-08-29T10:48:47.514Z,9.25
2023-08-29T10:52:09.705Z,9.07
2023-08-29T10:55:23.800Z,9.48
2023-08-29T10:58:36.176Z,8.60
2023-08-29T11:01:40.766Z,11.12
2023-08-29T11:04:55.775Z,9.85
2023-08-29T11:08:23.447Z,11.23
2023-08-29T11:11:25.756Z,8.05
2023-08-29T11:14:54.915Z,7.95
2023-08-29T11:18:33.817Z,8.48
2023-08-29T11:21:36.001Z,9.07
2023-08-29T11:24:38.226Z,8.70
2023-08-29T11:27:40.587Z,10.75
2023-08-29T11:30:44.907Z,9.20
2023-08-29T11:33:48.174Z,9.77
2023-08-29T11:36:52.774Z,9.10
2023-08-29T11:39:56.815Z,10.63
2023-08-29T11:43:26.042Z,7.82
2023-08-29T11:46:23.181Z,8.63
2023-08-29T11:49:26.507Z,10.30
2023-08-29T11:52:28.663Z,9.10
2023-08-29T11:55:33.154Z,9.03
2023-08-29T11:58:36.706Z,11.80
2023-08-29T12:01:38.835Z,10.88
2023-08-29T12:04:42.663Z,12.05
2023-08-29T12:07:45.429Z,11.43
2023-08-29T12:10:53.376Z,8.23
2023-08-29T12:14:06.681Z,10.38
2023-08-29T12:17:09.257Z,12.43
2023-08-29T12:20:17.080Z,13.60
2023-08-29T12:23:31.349Z,11.00
2023-08-29T12:26:33.730Z,10.60
2023-08-29T12:29:35.865Z,10.65
2023-08-29T12:32:37.923Z,13.30
2023-08-29T12:35:40.348Z,15.10
2023-08-29T12:38:42.463Z,14.73
2023-08-29T12:41:44.781Z,15.50
2023-08-29T12:44:47.020Z,15.73
2023-08-29T12:47:49.456Z,14.15
2023-08-29T12:50:51.569Z,17.58
2023-08-29T12:53:53.725Z,15.70
2023-08-29T12:56:56.428Z,14.73
2023-08-29T12:59:58.519Z,15.20
2023-08-29T13:03:01.557Z,12.02
2023-08-29T13:06:04.102Z,12.82
2023-08-29T13:09:06.355Z,13.23
2023-08-29T13:12:08.950Z,11.53
2023-08-29T13:15:13.742Z,12.93
2023-08-29T13:18:15.799Z,10.80
2023-08-29T13:21:17.865Z,13.77
2023-08-29T13:24:20.034Z,15.55
2023-08-29T13:27:22.165Z,12.73
2023-08-29T13:30:26.968Z,10.43
2023-08-29T13:33:29.039Z,11.90
2023-08-29T13:36:32.642Z,12.52
2023-08-29T13:39:34.741Z,12.55
2023-08-29T13:42:37.306Z,9.90
2023-08-29T13:45:39.639Z,12.43
2023-08-29T13:48:42.113Z,12.40
2023-08-29T13:51:46.617Z,11.38
2023-08-29T13:54:48.815Z,10.85
2023-08-29T13:57:51.317Z,12.40
2023-08-29T14:00:54.963Z,11.43
2023-08-29T14:03:57.773Z,12.63
2023-08-29T14:07:00.277Z,12.73
2023-08-29T14:10:02.528Z,13.40
2023-08-29T14:13:05.017Z,10.13
2023-08-29T14:16:07.601Z,11.52
2023-08-29T14:19:11.318Z,11.50
2023-08-29T14:22:13.736Z,13.98
2023-08-29T14:25:15.866Z,10.57
2023-08-29T14:28:18.174Z,11.27
2023-08-29T14:31:24.570Z,9.02
2023-08-29T14:34:27.717Z,11.73
2023-08-29T14:37:29.834Z,15.30
2023-08-29T14:40:32.294Z,11.65
2023-08-29T14:43:34.910Z,9.33
2023-08-29T14:46:37.369Z,14.95
2023-08-29T14:49:40.072Z,11.82
2023-08-29T14:52:42.535Z,9.57
2023-08-29T14:55:45.128Z,11.30
2023-08-29T14:58:47.988Z,15.60
2023-08-29T15:01:50.546Z,16.20
2023-08-29T15:04:53.331Z,9.32
2023-08-29T15:07:55.411Z,8.13
2023-08-29T15:10:58.098Z,10.38
2023-08-29T15:14:00.509Z,9.60
2023-08-29T15:17:03.364Z,8.27
2023-08-29T15:20:11.257Z,5.28
2023-08-29T15:23:14.664Z,8.32
2023-08-29T15:26:16.918Z,6.45
2023-08-29T15:29:19.434Z,7.33
2023-08-29T15:32:21.895Z,7.68
2023-08-29T15:35:24.496Z,4.85
2023-08-29T15:38:27.611Z,4.60
2023-08-29T15:41:30.393Z,6.03
2023-08-29T15:44:34.594Z,5.07
2023-08-29T15:47:37.831Z,4.82
2023-08-29T15:50:40.543Z,3.58
2023-08-29T15:53:43.005Z,6.20
2023-08-29T15:56:45.730Z,8.43
2023-08-29T15:59:48.749Z,6.07
2023-08-29T16:05:53.824Z,2.95
2023-08-29T16:08:58.546Z,4.32
2023-08-29T16:12:02.549Z,5.87
2023-08-29T16:15:05.419Z,7.50
2023-08-29T16:18:08.201Z,4.32
2023-08-29T16:21:11.335Z,8.05
2023-08-29T16:24:13.876Z,7.18
2023-08-29T16:27:17.040Z,4.65
2023-08-29T16:30:19.211Z,2.60
2023-08-29T16:33:21.744Z,2.92
2023-08-29T16:36:24.756Z,6.72
2023-08-29T16:39:31.826Z,2.78
2023-08-29T16:42:36.825Z,6.72
2023-08-29T16:45:39.164Z,4.73
2023-08-29T16:48:41.579Z,6.60
2023-08-29T16:51:43.691Z,3.42
2023-08-29T16:54:46.445Z,4.18
2023-08-29T16:57:49.194Z,6.07
2023-08-29T17:00:51.492Z,5.17
2023-08-29T17:03:54.311Z,6.90
2023-08-29T17:06:56.557Z,2.60
2023-08-29T17:10:01.184Z,3.33
2023-08-29T17:13:03.791Z,3.40
2023-08-29T17:16:06.760Z,4.47
2023-08-29T17:19:11.448Z,3.28
2023-08-29T17:22:16.595Z,2.65
2023-08-29T17:25:19.818Z,2.72
2023-08-29T17:28:24.250Z,2.65
2023-08-29T17:31:26.903Z,4.43
2023-08-29T17:34:30.290Z,1.85
2023-08-29T17:37:38.791Z,4.95
2023-08-29T17:40:42.416Z,4.30
2023-08-29T17:43:47.438Z,3.80
2023-08-29T17:46:51.506Z,3.77
2023-08-29T17:49:55.604Z,4.70
2023-08-29T17:52:58.130Z,3.75
2023-08-29T17:56:00.613Z,3.05
2023-08-29T17:59:06.201Z,3.53
2023-08-29T18:02:08.398Z,4.23
2023-08-29T18:05:13.252Z,5.35
2023-08-29T18:08:17.287Z,3.87
2023-08-29T18:11:20.363Z,3.50
2023-08-29T18:14:23.040Z,3.03
2023-08-29T18:17:26.402Z,3.20
2023-08-29T18:20:29.698Z,6.30
2023-08-29T18:23:33.005Z,3.60
2023-08-29T18:26:36.204Z,3.85
2023-08-29T18:29:39.326Z,3.03
2023-08-29T18:32:42.680Z,3.30
2023-08-29T18:35:47.098Z,2.00
2023-08-29T18:38:50.765Z,2.83
2023-08-29T18:41:54.309Z,3.92
2023-08-29T18:44:57.921Z,2.25
2023-08-29T18:48:00.782Z,3.23
2023-08-29T18:51:04.274Z,3.37
2023-08-29T18:54:07.086Z,1.65
2023-08-29T18:57:11.016Z,2.80
2023-08-29T19:00:14.687Z,2.50
2023-08-29T19:03:20.106Z,2.47
2023-08-29T19:06:23.349Z,1.65
2023-08-29T19:09:26.174Z,2.50
2023-08-29T19:12:28.962Z,2.37
2023-08-29T19:15:32.249Z,1.33
2023-08-29T19:18:37.972Z,2.23
2023-08-29T19:21:42.403Z,2.53
2023-08-29T19:24:47.106Z,3.53
2023-08-29T19:27:50.688Z,4.32
2023-08-29T19:30:56.089Z,2.95
2023-08-29T19:33:58.666Z,3.13
2023-08-29T19:37:02.263Z,2.53
2023-08-29T19:40:06.565Z,3.22
2023-08-29T19:43:10.193Z,2.58
2023-08-29T19:46:13.789Z,4.75
2023-08-29T19:49:18.876Z,3.17
2023-08-29T19:52:21.736Z,2.72
2023-08-29T19:55:26.184Z,3.62
2023-08-29T19:58:29.286Z,3.17
2023-08-29T20:01:33.036Z,2.92
2023-08-29T20:04:35.708Z,2.97
2023-08-29T20:07:38.945Z,2.20
2023-08-29T20:10:44.724Z,2.75
2023-08-29T20:13:48.007Z,2.50
2023-08-29T20:16:53.964Z,9.23
2023-08-29T20:19:57.286Z,3.50
2023-08-29T20:23:00.629Z,3.20
2023-08-29T20:26:03.253Z,4.00
2023-08-29T20:29:05.953Z,3.33
2023-08-29T20:32:08.767Z,3.65
2023-08-29T20:35:12.206Z,3.50
2023-08-29T20:38:15.488Z,3.67
2023-08-29T20:41:18.471Z,2.83
2023-08-29T20:44:21.005Z,4.65
2023-08-29T20:47:23.464Z,5.90
2023-08-29T20:50:26.529Z,3.40
2023-08-29T20:53:35.590Z,5.72
2023-08-29T20:56:38.002Z,3.67
2023-08-29T20:59:40.956Z,3.85
2023-08-29T21:02:43.314Z,6.03
2023-08-29T21:05:50.002Z,3.87
2023-08-29T21:08:52.233Z,3.47
2023-08-29T21:11:57.773Z,4.03
2023-08-29T21:14:59.957Z,3.67
2023-08-29T21:18:02.147Z,3.60
2023-08-29T21:21:04.390Z,3.50
2023-08-29T21:24:06.813Z,4.37
2023-08-29T21:27:09.424Z,3.50
2023-08-29T21:30:12.028Z,5.15
2023-08-29T21:33:15.060Z,4.43
2023-08-29T21:36:17.245Z,7.00
2023-08-29T21:39:19.321Z,3.25
2023-08-29T21:42:21.552Z,3.17
2023-08-29T21:45:25.603Z,3.42
2023-08-29T21:48:29.871Z,4.82
2023-08-29T21:51:32.051Z,5.17
2023-08-29T21:54:34.225Z,4.03
2023-08-29T21:57:36.254Z,5.03
2023-08-29T22:00:39.010Z,4.70
2023-08-29T22:03:42.536Z,5.00
2023-08-29T22:06:44.751Z,3.43
2023-08-29T22:09:46.924Z,5.03
2023-08-29T22:12:49.485Z,3.40
2023-08-29T22:15:52.404Z,3.30
2023-08-29T22:18:54.536Z,3.70
2023-08-29T22:21:56.725Z,3.50
2023-08-29T22:24:58.841Z,3.83
2023-08-29T22:28:00.992Z,2.85
2023-08-29T22:31:03.314Z,3.97
2023-08-29T22:34:05.677Z,4.78
2023-08-29T22:37:07.742Z,3.33
2023-08-29T22:40:10.426Z,3.17
2023-08-29T22:43:12.531Z,5.62
2023-08-29T22:46:14.759Z,2.92
2023-08-29T22:49:17.262Z,4.60
2023-08-29T22:52:19.469Z,2.57
2023-08-29T22:55:25.900Z,3.95
2023-08-29T22:58:29.054Z,4.28
2023-08-29T23:01:31.431Z,4.80
2023-08-29T23:04:52.295Z,4.00
2023-08-29T23:07:54.477Z,4.93
2023-08-29T23:10:56.694Z,5.18
2023-08-29T23:13:58.810Z,5.32
2023-08-29T23:17:00.970Z,5.30
2023-08-29T23:20:09.180Z,4.40
2023-08-29T23:23:11.323Z,5.03
2023-08-29T23:26:13.466Z,4.50
2023-08-29T23:29:15.670Z,4.78
2023-08-29T23:32:18.570Z,4.85
2023-08-29T23:35:21.718Z,5.40
2023-08-29T23:38:23.761Z,5.37
2023-08-29T23:41:27.054Z,4.62
2023-08-29T23:44:29.177Z,6.30
2023-08-29T23:47:31.555Z,3.92
2023-08-29T23:50:33.823Z,3.83
2023-08-29T23:53:36.531Z,4.10
2023-08-29T23:56:38.718Z,4.10
2023-08-29T23:59:40.880Z,2.95
